createdAt,value
2018-07-03T00:00:59.875Z,47.94
2018-07-03T00:01:59.841Z,48.43
2018-07-03T00:02:59.823Z,49.48
2018-07-03T00:03:59.820Z,49.17
2018-07-03T00:04:59.801Z,49.26
2018-07-03T00:05:59.792Z,49.26
2018-07-03T00:06:59.801Z,49.26
2018-07-03T00:07:59.769Z,49.55
2018-07-03T00:08:59.760Z,49.17
2018-07-03T00:09:59.746Z,49.55
2018-07-03T00:10:59.738Z,49.93
2018-07-03T00:11:59.741Z,50.13
2018-07-03T00:12:59.722Z,50.13
2018-07-03T00:13:59.702Z,49.84
2018-07-03T00:14:59.685Z,49.91
2018-07-03T00:15:59.679Z,50.58
2018-07-03T00:16:59.684Z,49.91
2018-07-03T00:17:59.682Z,50.49
2018-07-03T00:18:59.644Z,50.68
2018-07-03T00:19:59.626Z,50.58
2018-07-03T00:20:59.616Z,50.68
2018-07-03T00:21:59.608Z,50.87
2018-07-03T00:22:59.609Z,51.64
2018-07-03T00:23:59.583Z,51.73
2018-07-03T00:24:59.588Z,51.45
2018-07-03T00:25:59.565Z,51.83
2018-07-03T00:26:59.549Z,51.64
2018-07-03T00:27:59.539Z,51.35
2018-07-03T00:28:59.539Z,51.83
2018-07-03T00:29:59.519Z,52.50
2018-07-03T00:30:59.508Z,52.50
2018-07-03T00:31:59.497Z,52.89
2018-07-03T00:32:59.475Z,53.08
2018-07-03T00:33:59.490Z,53.66
2018-07-03T00:34:59.461Z,53.44
2018-07-03T00:35:59.443Z,52.76
2018-07-03T00:36:59.433Z,52.86
2018-07-03T00:37:59.427Z,53.05
2018-07-03T00:38:59.405Z,53.34
2018-07-03T00:39:59.410Z,53.24
2018-07-03T00:40:59.398Z,52.95
2018-07-03T00:41:59.373Z,53.91
2018-07-03T00:42:59.360Z,54.21
2018-07-03T00:43:59.344Z,54.21
2018-07-03T00:44:59.353Z,54.49
2018-07-03T00:45:59.326Z,55.26
2018-07-03T00:46:59.319Z,54.68
2018-07-03T00:47:59.297Z,54.11
2018-07-03T00:48:59.287Z,54.78
2018-07-03T00:49:59.298Z,54.97
2018-07-03T00:50:59.284Z,54.88
2018-07-03T00:51:59.250Z,54.39
2018-07-03T00:52:59.239Z,54.39
2018-07-03T00:53:59.234Z,54.85
2018-07-03T00:54:59.212Z,55.13
2018-07-03T00:55:59.218Z,55.52
2018-07-03T00:56:59.187Z,56.00
2018-07-03T00:57:59.177Z,56.48
2018-07-03T00:58:59.164Z,56.29
2018-07-03T00:59:59.150Z,56.96
2018-07-03T01:00:59.174Z,56.67
2018-07-03T01:01:59.128Z,56.86
2018-07-03T01:02:59.117Z,56.09
2018-07-03T01:03:59.102Z,56.86
2018-07-03T01:04:59.096Z,56.76
2018-07-03T01:05:59.089Z,56.57
2018-07-03T01:06:59.089Z,56.76
2018-07-03T01:07:59.058Z,56.67
2018-07-03T01:08:59.046Z,56.86
2018-07-03T01:09:59.028Z,56.76
2018-07-03T01:10:59.030Z,56.76
2018-07-03T01:12:20.021Z,56.38
2018-07-03T01:12:59.015Z,56.48
2018-07-03T01:13:58.986Z,55.80
2018-07-03T01:14:58.973Z,55.83
2018-07-03T01:15:58.971Z,55.26
2018-07-03T01:16:58.944Z,55.16
2018-07-03T01:17:58.926Z,55.45
2018-07-03T01:18:58.918Z,54.68
2018-07-03T01:19:58.925Z,54.11
2018-07-03T01:20:58.899Z,53.91
2018-07-03T01:21:58.899Z,54.78
2018-07-03T01:22:58.873Z,54.39
2018-07-03T01:23:58.860Z,54.49
2018-07-03T01:24:58.849Z,54.11
2018-07-03T01:25:58.853Z,53.91
2018-07-03T01:26:58.839Z,53.63
2018-07-03T01:27:58.827Z,53.72
2018-07-03T01:28:58.793Z,53.05
2018-07-03T01:29:58.787Z,53.91
2018-07-03T01:30:58.771Z,53.15
2018-07-03T01:31:58.763Z,54.11
2018-07-03T01:32:58.774Z,53.63
2018-07-03T01:33:58.744Z,54.49
2018-07-03T01:34:58.724Z,53.63
2018-07-03T01:35:58.708Z,54.49
2018-07-03T01:36:58.702Z,54.01
2018-07-03T01:37:58.699Z,53.34
2018-07-03T01:38:58.694Z,53.24
2018-07-03T01:39:58.662Z,53.72
2018-07-03T01:40:58.648Z,53.24
2018-07-03T01:41:58.641Z,53.63
2018-07-03T01:42:58.625Z,53.72
2018-07-03T01:43:58.639Z,53.24
2018-07-03T01:44:58.602Z,53.05
2018-07-03T01:45:58.589Z,52.57
2018-07-03T01:46:58.585Z,53.34
2018-07-03T01:47:58.565Z,53.15
2018-07-03T01:48:58.567Z,53.05
2018-07-03T01:49:58.554Z,53.05
2018-07-03T01:50:58.525Z,53.15
2018-07-03T01:51:58.523Z,53.24
2018-07-03T01:52:58.507Z,53.44
2018-07-03T01:53:58.485Z,52.76
2018-07-03T01:54:58.499Z,52.67
2018-07-03T01:55:58.460Z,52.95
2018-07-03T01:56:58.450Z,53.05
2018-07-03T01:57:58.439Z,52.48
2018-07-03T01:58:58.421Z,52.67
2018-07-03T01:59:58.430Z,52.28
2018-07-03T02:00:58.406Z,52.28
2018-07-03T02:01:58.389Z,52.67
2018-07-03T02:02:58.373Z,52.86
2018-07-03T02:03:58.367Z,52.86
2018-07-03T02:04:58.356Z,53.15
2018-07-03T02:05:58.357Z,53.15
2018-07-03T02:06:58.329Z,53.24
2018-07-03T02:07:58.324Z,52.86
2018-07-03T02:08:58.302Z,52.95
2018-07-03T02:09:58.293Z,53.24
2018-07-03T02:10:58.290Z,52.76
2018-07-03T02:11:58.267Z,53.63
2018-07-03T02:12:58.251Z,52.76
2018-07-03T02:13:58.252Z,53.63
2018-07-03T02:14:58.223Z,54.11
2018-07-03T02:15:58.216Z,54.21
2018-07-03T02:16:58.206Z,54.46
2018-07-03T02:17:58.214Z,54.01
2018-07-03T02:18:58.177Z,53.79
2018-07-03T02:19:58.170Z,53.70
2018-07-03T02:20:58.153Z,54.75
2018-07-03T02:21:58.140Z,54.37
2018-07-03T02:22:58.124Z,54.56
2018-07-03T02:23:58.133Z,54.46
2018-07-03T02:24:58.104Z,54.66
2018-07-03T02:25:58.089Z,55.52
2018-07-03T02:26:58.079Z,55.23
2018-07-03T02:27:58.064Z,55.80
2018-07-03T02:28:58.072Z,55.13
2018-07-03T02:29:58.038Z,55.90
2018-07-03T02:30:58.023Z,55.52
2018-07-03T02:31:58.017Z,55.62
2018-07-03T02:32:58.005Z,55.80
2018-07-03T02:33:57.987Z,55.71
2018-07-03T02:34:57.993Z,55.71
2018-07-03T02:35:57.964Z,55.90
2018-07-03T02:36:57.956Z,55.52
2018-07-03T02:37:57.940Z,55.62
2018-07-03T02:38:57.924Z,56.09
2018-07-03T02:39:57.939Z,55.90
2018-07-03T02:40:57.898Z,56.48
2018-07-03T02:41:57.882Z,56.48
2018-07-03T02:42:57.875Z,56.76
2018-07-03T02:43:57.862Z,56.86
2018-07-03T02:44:57.847Z,56.96
2018-07-03T02:45:57.853Z,56.48
2018-07-03T02:46:57.825Z,56.76
2018-07-03T02:47:57.815Z,56.76
2018-07-03T02:48:57.799Z,56.86
2018-07-03T02:49:57.783Z,57.06
2018-07-03T02:50:57.790Z,57.15
2018-07-03T02:51:57.773Z,56.67
2018-07-03T02:52:57.742Z,56.76
2018-07-03T02:53:57.741Z,56.96
2018-07-03T02:54:57.727Z,56.76
2018-07-03T02:55:57.711Z,56.64
2018-07-03T02:56:57.711Z,56.67
2018-07-03T02:57:57.686Z,56.64
2018-07-03T02:58:57.668Z,56.76
2018-07-03T02:59:57.656Z,56.67
2018-07-03T03:00:57.644Z,56.93
2018-07-03T03:01:57.640Z,56.74
2018-07-03T03:02:57.621Z,57.31
2018-07-03T03:03:57.612Z,57.12
2018-07-03T03:04:57.586Z,56.54
2018-07-03T03:05:57.576Z,56.74
2018-07-03T03:06:57.638Z,56.67
2018-07-03T03:07:57.555Z,56.64
2018-07-03T03:08:57.543Z,57.21
2018-07-03T03:09:57.530Z,57.41
2018-07-03T03:10:57.524Z,57.50
2018-07-03T03:11:57.499Z,57.03
2018-07-03T03:12:57.509Z,57.31
2018-07-03T03:13:57.477Z,57.03
2018-07-03T03:14:57.464Z,57.60
2018-07-03T03:15:57.453Z,57.50
2018-07-03T03:16:57.450Z,57.98
2018-07-03T03:17:57.425Z,57.03
2018-07-03T03:18:57.415Z,57.31
2018-07-03T03:19:57.399Z,57.03
2018-07-03T03:20:57.397Z,58.08
2018-07-03T03:21:57.384Z,57.79
2018-07-03T03:22:57.381Z,58.46
2018-07-03T03:23:57.356Z,58.37
2018-07-03T03:24:57.336Z,58.08
2018-07-03T03:25:57.324Z,57.79
2018-07-03T03:26:57.324Z,57.70
2018-07-03T03:27:57.314Z,58.37
2018-07-03T03:28:57.285Z,58.27
2018-07-03T03:29:57.282Z,58.65
2018-07-03T03:30:57.254Z,58.46
2018-07-03T03:31:57.255Z,57.98
2018-07-03T03:32:57.247Z,58.37
2018-07-03T03:33:57.219Z,58.46
2018-07-03T03:34:57.208Z,58.65
2018-07-03T03:35:57.193Z,58.46
2018-07-03T03:36:57.193Z,58.94
2018-07-03T03:37:57.163Z,58.56
2018-07-03T03:38:57.167Z,58.65
2018-07-03T03:39:57.141Z,59.23
2018-07-03T03:40:57.126Z,58.94
2018-07-03T03:41:57.120Z,58.84
2018-07-03T03:42:57.104Z,59.33
2018-07-03T03:43:57.108Z,59.20
2018-07-03T03:44:57.079Z,59.33
2018-07-03T03:45:57.063Z,60.76
2018-07-03T03:46:57.049Z,60.47
2018-07-03T03:47:57.037Z,60.44
2018-07-03T03:48:57.018Z,60.16
2018-07-03T03:49:57.037Z,60.44
2018-07-03T03:50:56.999Z,60.54
2018-07-03T03:51:56.982Z,60.64
2018-07-03T03:52:56.964Z,61.21
2018-07-03T03:53:56.962Z,60.73
2018-07-03T03:54:56.948Z,61.21
2018-07-03T03:55:56.948Z,61.60
2018-07-03T03:56:56.932Z,61.40
2018-07-03T03:57:56.903Z,61.11
2018-07-03T03:58:56.891Z,62.26
2018-07-03T03:59:56.880Z,61.50
2018-07-03T04:00:56.917Z,61.21
2018-07-03T04:01:56.852Z,61.98
2018-07-03T04:02:56.891Z,61.79
2018-07-03T04:03:56.827Z,61.21
2018-07-03T04:04:56.805Z,61.21
2018-07-03T04:05:56.801Z,61.50
2018-07-03T04:06:56.806Z,61.69
2018-07-03T04:07:56.777Z,60.93
2018-07-03T04:08:56.765Z,60.93
2018-07-03T04:09:56.751Z,60.93
2018-07-03T04:10:56.735Z,61.05
2018-07-03T04:11:56.752Z,61.50
2018-07-03T04:12:56.712Z,61.72
2018-07-03T04:13:56.696Z,61.69
2018-07-03T04:14:56.679Z,61.02
2018-07-03T04:15:56.671Z,61.24
2018-07-03T04:16:56.657Z,60.96
2018-07-03T04:17:56.663Z,60.67
2018-07-03T04:18:56.631Z,60.86
2018-07-03T04:19:56.619Z,60.86
2018-07-03T04:20:56.602Z,60.86
2018-07-03T04:21:56.617Z,60.86
2018-07-03T04:22:56.583Z,60.76
2018-07-03T04:23:56.578Z,61.05
2018-07-03T04:24:56.554Z,60.96
2018-07-03T04:25:56.562Z,61.05
2018-07-03T04:26:56.533Z,61.05
2018-07-03T04:27:56.526Z,61.05
2018-07-03T04:28:56.518Z,61.15
2018-07-03T04:29:56.489Z,61.24
2018-07-03T04:30:56.470Z,61.24
2018-07-03T04:31:56.459Z,61.72
2018-07-03T04:32:56.450Z,61.53
2018-07-03T04:33:56.499Z,61.34
2018-07-03T04:34:56.441Z,61.72
2018-07-03T04:35:56.410Z,61.72
2018-07-03T04:36:56.400Z,60.86
2018-07-03T04:37:56.384Z,62.23
2018-07-03T04:38:56.371Z,61.75
2018-07-03T04:39:56.380Z,61.18
2018-07-03T04:40:56.348Z,60.70
2018-07-03T04:41:56.337Z,60.63
2018-07-03T04:42:56.325Z,60.44
2018-07-03T04:43:56.312Z,59.38
2018-07-03T04:44:56.292Z,59.48
2018-07-03T04:45:56.322Z,58.94
2018-07-03T04:46:56.298Z,58.00
2018-07-03T04:47:56.261Z,57.71
2018-07-03T04:48:56.245Z,57.36
2018-07-03T04:49:56.231Z,56.98
2018-07-03T04:50:56.229Z,56.23
2018-07-03T04:51:56.224Z,55.94
2018-07-03T04:52:56.256Z,56.04
2018-07-03T04:53:56.197Z,54.63
2018-07-03T04:54:56.167Z,54.05
2018-07-03T04:55:56.169Z,53.78
2018-07-03T04:56:56.163Z,52.83
2018-07-03T04:57:56.137Z,53.31
2018-07-03T04:58:56.141Z,53.11
2018-07-03T04:59:56.105Z,52.66
2018-07-03T05:00:56.114Z,52.18
2018-07-03T05:01:56.088Z,52.08
2018-07-03T05:02:56.083Z,51.70
2018-07-03T05:03:56.063Z,52.18
2018-07-03T05:04:56.054Z,51.57
2018-07-03T05:05:56.060Z,51.86
2018-07-03T05:06:56.035Z,52.63
2018-07-03T05:07:56.019Z,53.11
2018-07-03T05:08:56.005Z,52.44
2018-07-03T05:09:55.998Z,52.73
2018-07-03T05:10:55.981Z,53.31
2018-07-03T05:11:55.992Z,53.02
2018-07-03T05:12:55.992Z,53.31
2018-07-03T05:13:55.950Z,53.50
2018-07-03T05:14:55.938Z,53.11
2018-07-03T05:15:55.925Z,53.11
2018-07-03T05:16:55.912Z,53.40
2018-07-03T05:17:55.935Z,52.73
2018-07-03T05:18:55.910Z,53.40
2018-07-03T05:19:55.887Z,53.40
2018-07-03T05:20:55.865Z,53.31
2018-07-03T05:21:55.947Z,52.54
2018-07-03T05:22:55.849Z,52.56
2018-07-03T05:23:55.842Z,52.08
2018-07-03T05:24:55.845Z,51.89
2018-07-03T05:25:55.818Z,51.76
2018-07-03T05:26:55.814Z,52.27
2018-07-03T05:27:55.798Z,51.96
2018-07-03T05:28:55.803Z,52.25
2018-07-03T05:29:55.790Z,52.44
2018-07-03T05:30:55.769Z,52.34
2018-07-03T05:31:55.753Z,52.44
2018-07-03T05:32:55.743Z,52.63
2018-07-03T05:33:55.737Z,53.11
2018-07-03T05:34:55.778Z,52.73
2018-07-03T05:35:57.930Z,52.73
2018-07-03T05:36:55.716Z,53.11
2018-07-03T05:37:55.686Z,52.83
2018-07-03T05:38:55.684Z,52.25
2018-07-03T05:39:56.250Z,52.73
2018-07-03T05:40:55.681Z,52.06
2018-07-03T05:41:55.658Z,52.27
2018-07-03T05:42:55.904Z,52.56
2018-07-03T05:43:55.635Z,52.47
2018-07-03T05:44:55.638Z,52.15
2018-07-03T05:45:55.616Z,52.18
2018-07-03T05:46:55.597Z,52.27
2018-07-03T05:47:55.580Z,52.18
2018-07-03T05:48:55.570Z,51.70
2018-07-03T05:49:55.585Z,51.89
2018-07-03T05:50:55.548Z,51.89
2018-07-03T05:51:55.537Z,51.70
2018-07-03T05:52:55.524Z,51.50
2018-07-03T05:53:55.520Z,51.50
2018-07-03T05:54:55.510Z,51.70
2018-07-03T05:55:55.515Z,51.70
2018-07-03T05:56:55.485Z,52.30
2018-07-03T05:57:55.477Z,52.27
2018-07-03T05:58:55.466Z,51.82
2018-07-03T05:59:55.454Z,51.62
2018-07-03T06:00:55.444Z,51.24
2018-07-03T06:01:55.448Z,50.76
2018-07-03T06:02:55.425Z,51.82
2018-07-03T06:03:55.459Z,51.07
2018-07-03T06:04:55.425Z,50.98
2018-07-03T06:05:55.410Z,50.11
2018-07-03T06:06:55.408Z,50.40
2018-07-03T06:07:55.394Z,49.94
2018-07-03T06:08:55.355Z,49.75
2018-07-03T06:09:55.344Z,49.43
2018-07-03T06:10:55.337Z,50.40
2018-07-03T06:11:55.326Z,50.11
2018-07-03T06:12:55.356Z,50.01
2018-07-03T06:13:55.320Z,50.21
2018-07-03T06:14:55.316Z,50.11
2018-07-03T06:15:55.284Z,49.17
2018-07-03T06:16:55.265Z,49.43
2018-07-03T06:17:55.269Z,48.88
2018-07-03T06:18:55.270Z,48.59
2018-07-03T06:19:55.255Z,48.79
2018-07-03T06:20:55.225Z,47.34
2018-07-03T06:21:55.219Z,46.88
2018-07-03T06:22:55.219Z,46.69
2018-07-03T06:23:55.196Z,45.62
2018-07-03T06:24:55.203Z,45.53
2018-07-03T06:25:55.179Z,45.62
2018-07-03T06:26:55.178Z,45.14
2018-07-03T06:27:55.155Z,44.95
2018-07-03T06:28:55.169Z,45.45
2018-07-03T06:29:55.157Z,45.26
2018-07-03T06:30:55.119Z,44.95
2018-07-03T06:31:55.111Z,44.56
2018-07-03T06:32:55.098Z,44.46
2018-07-03T06:33:55.107Z,43.21
2018-07-03T06:34:55.095Z,43.60
2018-07-03T06:35:55.071Z,43.41
2018-07-03T06:36:55.057Z,42.35
2018-07-03T06:37:55.049Z,42.08
2018-07-03T06:38:55.036Z,41.40
2018-07-03T06:39:55.036Z,40.82
2018-07-03T06:40:55.036Z,40.53
2018-07-03T06:41:55.014Z,40.44
2018-07-03T06:42:55.002Z,39.87
2018-07-03T06:43:55.042Z,39.87
2018-07-03T06:44:55.026Z,39.78
2018-07-03T06:45:54.982Z,40.45
2018-07-03T06:46:55.160Z,39.59
2018-07-03T06:47:54.947Z,39.69
2018-07-03T06:48:54.938Z,39.29
2018-07-03T06:49:54.929Z,37.75
2018-07-03T06:50:54.948Z,37.65
2018-07-03T06:51:54.909Z,37.27
2018-07-03T06:52:54.945Z,37.75
2018-07-03T06:53:54.891Z,38.14
2018-07-03T06:54:54.876Z,38.04
2018-07-03T06:55:54.883Z,38.14
2018-07-03T06:56:54.867Z,38.33
2018-07-03T06:57:54.872Z,38.16
2018-07-03T06:58:54.832Z,37.87
2018-07-03T06:59:54.833Z,37.87
2018-07-03T07:00:54.833Z,37.19
2018-07-03T07:01:54.809Z,37.58
2018-07-03T07:02:54.796Z,37.19
2018-07-03T07:03:55.310Z,37.38
2018-07-03T07:04:55.774Z,37.29
2018-07-03T07:05:54.791Z,37.00
2018-07-03T07:06:55.314Z,37.38
2018-07-03T07:07:54.753Z,37.38
2018-07-03T07:08:54.773Z,37.29
2018-07-03T07:09:54.729Z,37.58
2018-07-03T07:10:54.724Z,37.29
2018-07-03T07:11:54.728Z,36.90
2018-07-03T07:12:54.694Z,37.58
2018-07-03T07:13:54.687Z,37.00
2018-07-03T07:14:54.698Z,37.70
2018-07-03T07:15:54.679Z,37.40
2018-07-03T07:16:54.675Z,37.79
2018-07-03T07:17:54.650Z,37.21
2018-07-03T07:18:54.637Z,36.55
2018-07-03T07:19:54.628Z,37.32
2018-07-03T07:20:54.640Z,37.32
2018-07-03T07:21:54.644Z,37.71
2018-07-03T07:22:54.595Z,37.82
2018-07-03T07:23:54.592Z,37.81
2018-07-03T07:24:54.582Z,37.32
2018-07-03T07:25:54.572Z,37.42
2018-07-03T07:26:54.570Z,37.52
2018-07-03T07:27:54.566Z,36.66
2018-07-03T07:28:54.537Z,37.42
2018-07-03T07:29:54.530Z,37.24
2018-07-03T07:30:54.520Z,36.08
2018-07-03T07:31:54.513Z,36.86
2018-07-03T07:32:54.525Z,36.28
2018-07-03T07:33:54.497Z,36.38
2018-07-03T07:34:54.501Z,36.66
2018-07-03T07:35:54.517Z,36.66
2018-07-03T07:36:54.461Z,37.73
2018-07-03T07:37:54.450Z,38.12
2018-07-03T07:38:54.445Z,37.82
2018-07-03T07:39:54.433Z,36.38
2018-07-03T07:40:54.445Z,36.47
2018-07-03T07:41:54.418Z,36.57
2018-07-03T07:42:54.437Z,36.57
2018-07-03T07:43:54.400Z,36.96
2018-07-03T07:44:54.387Z,36.58
2018-07-03T07:45:54.376Z,36.98
2018-07-03T07:46:54.368Z,36.58
2018-07-03T07:47:54.397Z,35.62
2018-07-03T07:48:54.362Z,35.44
2018-07-03T07:49:54.338Z,35.15
2018-07-03T07:50:54.331Z,35.05
2018-07-03T07:51:54.336Z,34.57
2018-07-03T07:52:54.339Z,34.67
2018-07-03T07:53:54.327Z,34.86
2018-07-03T07:54:54.293Z,34.77
2018-07-03T07:55:54.284Z,34.57
2018-07-03T07:56:54.268Z,34.20
2018-07-03T07:57:54.262Z,33.91
2018-07-03T07:58:54.268Z,33.23
2018-07-03T07:59:54.244Z,34.20
2018-07-03T08:00:54.231Z,34.30
2018-07-03T08:01:54.225Z,35.46
2018-07-03T08:02:54.217Z,34.78
2018-07-03T08:03:54.225Z,33.52
2018-07-03T08:04:54.195Z,33.91
2018-07-03T08:05:54.192Z,33.62
2018-07-03T08:06:54.187Z,33.72
2018-07-03T08:07:54.176Z,34.01
2018-07-03T08:08:54.161Z,34.97
2018-07-03T08:09:54.165Z,34.49
2018-07-03T08:10:54.159Z,34.11
2018-07-03T08:11:54.128Z,35.56
2018-07-03T08:12:54.124Z,36.04
2018-07-03T08:13:54.113Z,33.92
2018-07-03T08:14:54.121Z,34.61
2018-07-03T08:15:54.094Z,34.22
2018-07-03T08:16:54.087Z,33.54
2018-07-03T08:17:54.077Z,33.54
2018-07-03T08:18:54.071Z,34.23
2018-07-03T08:19:54.084Z,34.23
2018-07-03T08:20:54.049Z,32.49
2018-07-03T08:21:54.045Z,31.91
2018-07-03T08:22:54.036Z,33.26
2018-07-03T08:23:54.025Z,33.09
2018-07-03T08:24:54.034Z,32.10
2018-07-03T08:25:54.010Z,31.82
2018-07-03T08:26:53.996Z,31.34
2018-07-03T08:27:53.990Z,31.73
2018-07-03T08:28:53.985Z,31.44
2018-07-03T08:29:53.990Z,30.95
2018-07-03T08:30:53.968Z,30.66
2018-07-03T08:31:53.957Z,31.53
2018-07-03T08:32:53.947Z,30.74
2018-07-03T08:33:53.935Z,31.13
2018-07-03T08:34:53.930Z,31.63
2018-07-03T08:35:53.935Z,31.42
2018-07-03T08:36:53.915Z,31.23
2018-07-03T08:37:53.927Z,30.84
2018-07-03T08:38:53.896Z,31.32
2018-07-03T08:39:53.885Z,32.12
2018-07-03T08:40:53.901Z,32.70
2018-07-03T08:41:53.864Z,32.02
2018-07-03T08:42:53.937Z,31.63
2018-07-03T08:43:53.850Z,31.63
2018-07-03T08:44:53.841Z,31.73
2018-07-03T08:45:53.842Z,32.89
2018-07-03T08:46:53.835Z,31.55
2018-07-03T08:47:53.816Z,32.32
2018-07-03T08:48:53.821Z,31.57
2018-07-03T08:49:53.792Z,31.57
2018-07-03T08:50:53.811Z,31.76
2018-07-03T08:51:53.795Z,31.68
2018-07-03T08:52:53.773Z,32.07
2018-07-03T08:53:53.775Z,31.70
2018-07-03T08:54:53.753Z,31.61
2018-07-03T08:55:53.764Z,30.54
2018-07-03T08:56:53.736Z,30.25
2018-07-03T08:57:53.740Z,29.57
2018-07-03T08:58:53.738Z,29.08
2018-07-03T08:59:53.708Z,28.61
2018-07-03T09:00:53.755Z,27.94
2018-07-03T09:01:53.706Z,28.25
2018-07-03T09:02:53.690Z,27.68
2018-07-03T09:03:53.741Z,27.01
2018-07-03T09:04:53.674Z,26.24
2018-07-03T09:05:53.676Z,26.06
2018-07-03T09:06:53.667Z,26.17
2018-07-03T09:07:53.680Z,25.11
2018-07-03T09:08:53.640Z,24.05
2018-07-03T09:09:53.642Z,23.98
2018-07-03T09:10:53.628Z,23.00
2018-07-03T09:11:53.639Z,22.81
2018-07-03T09:12:53.626Z,23.41
2018-07-03T09:13:53.599Z,23.00
2018-07-03T09:14:53.588Z,24.84
2018-07-03T09:15:53.601Z,23.59
2018-07-03T09:16:53.594Z,24.46
2018-07-03T09:17:53.631Z,23.30
2018-07-03T09:18:53.577Z,23.02
2018-07-03T09:19:53.568Z,22.33
2018-07-03T09:20:53.548Z,22.52
2018-07-03T09:21:54.379Z,23.12
2018-07-03T09:22:53.548Z,21.77
2018-07-03T09:23:53.553Z,22.66
2018-07-03T09:24:53.528Z,21.78
2018-07-03T09:25:53.527Z,21.67
2018-07-03T09:26:53.529Z,22.95
2018-07-03T09:27:53.507Z,22.47
2018-07-03T09:28:53.497Z,22.27
2018-07-03T09:29:53.503Z,21.59
2018-07-03T09:30:53.494Z,21.80
2018-07-03T09:31:53.511Z,22.48
2018-07-03T09:32:53.516Z,21.78
2018-07-03T09:33:53.487Z,20.90
2018-07-03T09:34:53.505Z,20.89
2018-07-03T09:35:53.481Z,20.70
2018-07-03T09:36:53.472Z,21.51
2018-07-03T09:37:53.499Z,21.72
2018-07-03T09:38:53.501Z,20.93
2018-07-03T09:39:53.476Z,20.72
2018-07-03T09:40:53.472Z,20.69
2018-07-03T09:41:53.471Z,21.01
2018-07-03T09:42:53.465Z,20.51
2018-07-03T09:43:53.481Z,20.51
2018-07-03T09:44:53.473Z,22.20
2018-07-03T09:45:53.455Z,21.80
2018-07-03T09:46:53.478Z,21.80
2018-07-03T09:47:53.482Z,20.12
2018-07-03T09:48:53.527Z,21.69
2018-07-03T09:49:53.463Z,20.90
2018-07-03T09:50:53.466Z,19.64
2018-07-03T09:51:53.459Z,20.73
2018-07-03T09:52:53.462Z,18.98
2018-07-03T09:53:53.510Z,20.06
2018-07-03T09:54:53.483Z,20.43
2018-07-03T09:55:53.483Z,19.85
2018-07-03T09:56:53.456Z,18.76
2018-07-03T09:57:53.470Z,18.64
2018-07-03T09:58:53.465Z,19.33
2018-07-03T09:59:53.476Z,18.86
2018-07-03T10:00:53.466Z,19.54
2018-07-03T10:01:53.472Z,19.46
2018-07-03T10:02:53.474Z,18.57
2018-07-03T10:03:53.473Z,17.50
2018-07-03T10:04:53.490Z,18.27
2018-07-03T10:05:53.470Z,18.44
2018-07-03T10:06:53.478Z,19.41
2018-07-03T10:07:53.476Z,19.32
2018-07-03T10:08:53.476Z,19.12
2018-07-03T10:09:53.504Z,19.33
2018-07-03T10:10:53.487Z,18.16
2018-07-03T10:11:53.482Z,19.93
2018-07-03T10:12:53.536Z,18.76
2018-07-03T10:13:53.489Z,18.56
2018-07-03T10:14:53.487Z,18.76
2018-07-03T10:15:53.512Z,18.57
2018-07-03T10:16:53.495Z,18.77
2018-07-03T10:17:53.489Z,17.88
2018-07-03T10:18:53.521Z,17.21
2018-07-03T10:19:53.501Z,17.50
2018-07-03T10:20:53.532Z,18.30
2018-07-03T10:21:53.530Z,17.61
2018-07-03T10:22:53.536Z,18.39
2018-07-03T10:23:53.509Z,17.79
2018-07-03T10:24:53.539Z,17.31
2018-07-03T10:25:53.553Z,18.90
2018-07-03T10:26:53.529Z,17.81
2018-07-03T10:27:53.523Z,17.71
2018-07-03T10:28:53.541Z,18.60
2018-07-03T10:29:53.518Z,17.80
2018-07-03T10:31:14.578Z,17.21
2018-07-03T10:31:53.543Z,17.41
2018-07-03T10:32:53.534Z,16.93
2018-07-03T10:33:53.545Z,17.52
2018-07-03T10:34:53.536Z,17.23
2018-07-03T10:35:53.557Z,18.71
2018-07-03T10:36:53.549Z,18.30
2018-07-03T10:37:53.549Z,19.18
2018-07-03T10:38:53.547Z,17.71
2018-07-03T10:39:53.570Z,18.41
2018-07-03T10:40:53.579Z,19.40
2018-07-03T10:41:53.564Z,18.41
2018-07-03T10:42:53.567Z,17.33
2018-07-03T10:43:53.566Z,18.21
2018-07-03T10:44:53.567Z,17.61
2018-07-03T10:45:53.578Z,17.12
2018-07-03T10:46:53.600Z,18.40
2018-07-03T10:47:53.579Z,18.79
2018-07-03T10:48:53.593Z,17.60
2018-07-03T10:49:53.581Z,17.02
2018-07-03T10:50:53.591Z,17.23
2018-07-03T10:51:53.606Z,17.41
2018-07-03T10:52:53.598Z,17.02
2018-07-03T10:53:53.598Z,17.21
2018-07-03T10:54:53.607Z,18.48
2018-07-03T10:55:53.607Z,18.19
2018-07-03T10:56:53.637Z,16.83
2018-07-03T10:57:53.647Z,16.35
2018-07-03T10:58:53.618Z,16.07
2018-07-03T10:59:53.623Z,17.56
2018-07-03T11:00:53.624Z,17.46
2018-07-03T11:01:53.624Z,17.73
2018-07-03T11:02:53.649Z,17.61
2018-07-03T11:03:53.633Z,18.59
2018-07-03T11:04:53.637Z,18.49
2018-07-03T11:05:53.644Z,17.33
2018-07-03T11:06:53.651Z,16.16
2018-07-03T11:07:53.675Z,17.74
2018-07-03T11:08:53.689Z,16.85
2018-07-03T11:09:53.660Z,17.24
2018-07-03T11:10:53.672Z,17.03
2018-07-03T11:11:53.696Z,17.52
2018-07-03T11:12:53.702Z,17.41
2018-07-03T11:13:53.714Z,18.77
2018-07-03T11:14:53.683Z,19.46
2018-07-03T11:15:53.689Z,17.79
2018-07-03T11:16:53.688Z,17.79
2018-07-03T11:17:53.702Z,17.41
2018-07-03T11:18:53.739Z,17.60
2018-07-03T11:19:53.829Z,17.50
2018-07-03T11:20:53.726Z,17.41
2018-07-03T11:21:53.714Z,17.50
2018-07-03T11:22:53.725Z,17.22
2018-07-03T11:23:53.725Z,16.93
2018-07-03T11:24:53.742Z,18.71
2018-07-03T11:25:53.747Z,16.26
2018-07-03T11:26:53.739Z,18.63
2018-07-03T11:27:53.757Z,17.52
2018-07-03T11:28:53.769Z,17.60
2018-07-03T11:29:53.770Z,18.48
2018-07-03T11:30:54.849Z,17.98
2018-07-03T11:31:53.765Z,19.43
2018-07-03T11:32:53.764Z,19.47
2018-07-03T11:33:53.777Z,20.53
2018-07-03T11:34:53.772Z,20.83
2018-07-03T11:35:53.799Z,20.74
2018-07-03T11:36:53.788Z,21.73
2018-07-03T11:37:54.420Z,21.74
2018-07-03T11:38:53.820Z,20.56
2018-07-03T11:39:53.793Z,21.23
2018-07-03T11:40:53.808Z,21.42
2018-07-03T11:41:53.803Z,22.10
2018-07-03T11:42:53.859Z,23.48
2018-07-03T11:43:53.833Z,23.88
2018-07-03T11:44:53.876Z,21.92
2018-07-03T11:45:53.810Z,21.74
2018-07-03T11:46:53.826Z,25.28
2018-07-03T11:47:53.818Z,23.93
2018-07-03T11:48:53.832Z,21.09
2018-07-03T11:49:53.866Z,21.11
2018-07-03T11:50:53.846Z,20.79
2018-07-03T11:51:53.830Z,21.01
2018-07-03T11:52:53.830Z,19.93
2018-07-03T11:53:53.841Z,18.95
2018-07-03T11:54:53.855Z,18.54
2018-07-03T11:55:53.840Z,19.51
2018-07-03T11:56:53.843Z,19.62
2018-07-03T11:57:53.853Z,21.01
2018-07-03T11:58:53.843Z,21.12
2018-07-03T11:59:53.878Z,20.94
2018-07-03T12:00:53.856Z,21.04
2018-07-03T12:01:53.866Z,21.54
2018-07-03T12:02:53.856Z,20.93
2018-07-03T12:03:53.887Z,20.04
2018-07-03T12:04:53.874Z,22.00
2018-07-03T12:05:53.876Z,22.77
2018-07-03T12:06:53.866Z,22.46
2018-07-03T12:07:53.888Z,20.12
2018-07-03T12:08:53.903Z,20.90
2018-07-03T12:09:53.866Z,24.82
2018-07-03T12:10:53.914Z,19.62
2018-07-03T12:11:53.900Z,19.54
2018-07-03T12:12:53.894Z,19.54
2018-07-03T12:13:53.890Z,21.80
2018-07-03T12:14:53.894Z,22.48
2018-07-03T12:15:53.906Z,19.64
2018-07-03T12:16:53.908Z,19.75
2018-07-03T12:17:53.899Z,22.22
2018-07-03T12:18:53.900Z,23.29
2018-07-03T12:19:54.005Z,20.04
2018-07-03T12:20:53.915Z,20.15
2018-07-03T12:21:53.915Z,20.93
2018-07-03T12:22:53.918Z,20.90
2018-07-03T12:23:53.914Z,23.74
2018-07-03T12:24:53.919Z,23.63
2018-07-03T12:25:53.946Z,23.71
2018-07-03T12:26:53.926Z,21.76
2018-07-03T12:27:53.964Z,23.63
2018-07-03T12:28:53.980Z,23.72
2018-07-03T12:29:53.935Z,23.82
2018-07-03T12:30:53.939Z,25.48
2018-07-03T12:31:53.961Z,21.75
2018-07-03T12:32:53.973Z,21.66
2018-07-03T12:33:53.958Z,20.10
2018-07-03T12:34:53.946Z,22.35
2018-07-03T12:35:53.960Z,22.35
2018-07-03T12:36:53.964Z,20.99
2018-07-03T12:37:53.949Z,21.67
2018-07-03T12:40:26.157Z,19.43
2018-07-03T12:41:34.628Z,19.23
2018-07-03T12:47:32.839Z,19.81
2018-07-03T12:48:03.705Z,20.59
2018-07-03T12:55:26.416Z,19.74
2018-07-03T12:56:15.832Z,18.67
2018-07-03T12:57:15.189Z,18.56
2018-07-03T12:58:15.893Z,19.36
2018-07-03T12:59:15.180Z,18.48
2018-07-03T13:00:15.207Z,20.34
2018-07-03T13:01:15.180Z,19.26
2018-07-03T13:02:15.204Z,18.87
2018-07-03T13:03:15.184Z,19.54
2018-07-03T13:04:15.216Z,19.83
2018-07-03T13:05:15.206Z,19.13